Detroit, Michigan
Traffic Map
Current Weather Conditions
Detroit, Michigan
Overcast Light Rain
Overcast

Feels Like: 3°
Wind Chill: Ceiling: 4100
Heat Index: Visibility: 6mi
Dew Point: Wind: 9mph
Humidity: 87% Direction: 260° (W)
Pressure: 29.89in Gusts: 0mph
Raw Report DataCYQG 311400Z 26008KT 6SM -RA BR FEW022 OVC041 06/04 A2989 RMK SC2SC6 SLP125
Traffic Incident Summary
Active as of:
Severity:
Category:
InformationThere was an issue retrieving the traffic information for this location. Please try a different location or try again shortly.
Advertisements
Track Severe Weather on mobile